createdAt,value
2018-07-08T00:02:00.950Z,11.30
2018-07-08T00:04:30.211Z,11.17
2018-07-08T00:06:59.438Z,9.93
2018-07-08T00:09:28.706Z,12.80
2018-07-08T00:11:57.998Z,9.93
2018-07-08T00:14:27.263Z,11.07
2018-07-08T00:16:56.548Z,9.07
2018-07-08T00:19:25.822Z,10.43
2018-07-08T00:21:55.209Z,10.40
2018-07-08T00:24:25.719Z,13.00
2018-07-08T00:26:54.946Z,12.50
2018-07-08T00:29:24.204Z,10.83
2018-07-08T00:31:53.465Z,11.13
2018-07-08T00:34:22.678Z,11.57
2018-07-08T00:36:51.930Z,11.70
2018-07-08T00:39:21.163Z,11.93
2018-07-08T00:41:50.377Z,11.83
2018-07-08T00:44:19.741Z,12.23
2018-07-08T00:46:48.994Z,11.93
2018-07-08T00:49:18.226Z,11.43
2018-07-08T00:51:47.475Z,12.60
2018-07-08T00:54:16.709Z,12.10
2018-07-08T00:56:45.962Z,11.70
2018-07-08T00:59:15.225Z,11.03
2018-07-08T01:01:44.666Z,11.27
2018-07-08T01:04:13.875Z,11.43
2018-07-08T01:06:43.144Z,11.53
2018-07-08T01:09:12.455Z,10.65
2018-07-08T01:11:41.725Z,10.40
2018-07-08T01:14:10.975Z,10.88
2018-07-08T01:16:40.230Z,10.97
2018-07-08T01:19:09.491Z,11.93
2018-07-08T01:21:38.742Z,11.30
2018-07-08T01:24:08.043Z,12.37
2018-07-08T01:26:38.058Z,12.07
2018-07-08T01:29:07.291Z,11.87
2018-07-08T01:31:36.545Z,10.83
2018-07-08T01:34:05.818Z,10.60
2018-07-08T01:36:35.070Z,10.03
2018-07-08T01:39:05.433Z,13.00
2018-07-08T01:41:34.658Z,10.77
2018-07-08T01:44:04.095Z,11.75
2018-07-08T01:46:33.330Z,11.47
2018-07-08T01:49:02.590Z,11.97
2018-07-08T01:51:31.841Z,12.10
2018-07-08T01:54:01.137Z,11.95
2018-07-08T01:56:30.367Z,11.57
2018-07-08T01:58:59.693Z,11.33
2018-07-08T02:01:28.932Z,11.27
2018-07-08T02:03:58.195Z,10.47
2018-07-08T02:06:27.660Z,11.00
2018-07-08T02:08:56.906Z,11.07
2018-07-08T02:11:26.131Z,10.90
2018-07-08T02:13:55.966Z,9.50
2018-07-08T02:16:25.215Z,9.70
2018-07-08T02:18:54.557Z,9.90
2018-07-08T02:21:23.811Z,10.50
2018-07-08T02:23:53.071Z,11.57
2018-07-08T02:26:22.314Z,10.50
2018-07-08T02:28:51.625Z,10.60
2018-07-08T02:31:20.898Z,10.53
2018-07-08T02:33:50.150Z,11.05
2018-07-08T02:36:19.658Z,10.30
2018-07-08T02:38:48.916Z,11.40
2018-07-08T02:41:18.138Z,11.50
2018-07-08T02:43:47.375Z,12.13
2018-07-08T02:46:16.668Z,12.30
2018-07-08T02:48:45.969Z,12.13
2018-07-08T02:51:15.244Z,11.30
2018-07-08T02:53:44.454Z,10.33
2018-07-08T02:56:13.695Z,10.70
2018-07-08T02:58:42.955Z,10.17
2018-07-08T03:01:12.219Z,10.43
2018-07-08T03:03:41.483Z,10.10
2018-07-08T03:06:10.780Z,11.13
2018-07-08T03:08:40.023Z,11.80
2018-07-08T03:11:09.278Z,11.90
2018-07-08T03:13:38.515Z,11.53
2018-07-08T03:16:07.791Z,11.27
2018-07-08T03:18:37.086Z,12.13
2018-07-08T03:21:06.335Z,12.30
2018-07-08T03:23:35.562Z,12.50
2018-07-08T03:26:04.845Z,12.30
2018-07-08T03:28:34.050Z,11.50
2018-07-08T03:31:03.431Z,10.82
2018-07-08T03:33:32.837Z,10.97
2018-07-08T03:36:01.999Z,11.27
2018-07-08T03:38:31.240Z,9.83
2018-07-08T03:41:00.452Z,10.70
2018-07-08T03:43:29.710Z,10.90
2018-07-08T03:45:58.938Z,10.33
2018-07-08T03:48:28.202Z,10.03
2018-07-08T03:50:57.433Z,9.93
2018-07-08T03:53:26.696Z,9.63
2018-07-08T03:55:55.950Z,10.87
2018-07-08T03:58:25.251Z,11.37
2018-07-08T04:00:54.470Z,10.37
2018-07-08T04:03:23.731Z,9.80
2018-07-08T04:05:53.278Z,11.10
2018-07-08T04:08:22.530Z,9.63
2018-07-08T04:10:52.979Z,9.20
2018-07-08T04:13:22.232Z,9.60
2018-07-08T04:15:51.470Z,9.60
2018-07-08T04:18:20.719Z,9.63
2018-07-08T04:20:50.016Z,9.87
2018-07-08T04:23:19.243Z,9.73
2018-07-08T04:25:48.470Z,9.77
2018-07-08T04:28:17.751Z,9.53
2018-07-08T04:30:47.279Z,9.17
2018-07-08T04:33:16.506Z,9.80
2018-07-08T04:35:45.806Z,9.50
2018-07-08T04:38:15.059Z,9.10
2018-07-08T04:40:44.266Z,8.13
2018-07-08T04:43:13.534Z,9.00
2018-07-08T04:45:42.759Z,9.37
2018-07-08T04:48:11.971Z,9.73
2018-07-08T04:50:41.234Z,10.37
2018-07-08T04:53:10.463Z,9.07
2018-07-08T04:55:39.702Z,8.37
2018-07-08T04:58:08.928Z,7.53
2018-07-08T05:00:38.147Z,7.57
2018-07-08T05:03:07.374Z,7.80
2018-07-08T05:05:36.630Z,7.80
2018-07-08T05:08:05.831Z,8.00
2018-07-08T05:10:35.062Z,8.17
2018-07-08T05:13:04.297Z,8.03
2018-07-08T05:15:33.522Z,7.40
2018-07-08T05:18:02.931Z,8.30
2018-07-08T05:20:32.222Z,8.37
2018-07-08T05:23:02.657Z,7.92
2018-07-08T05:25:31.910Z,7.60
2018-07-08T05:28:01.205Z,6.97
2018-07-08T05:30:30.506Z,7.80
2018-07-08T05:32:59.734Z,7.20
2018-07-08T05:35:28.975Z,6.95
2018-07-08T05:37:58.241Z,7.45
2018-07-08T05:40:27.463Z,8.00
2018-07-08T05:42:56.722Z,6.90
2018-07-08T05:45:25.942Z,7.25
2018-07-08T05:47:55.186Z,7.62
2018-07-08T05:50:24.527Z,7.65
2018-07-08T05:52:53.702Z,7.43
2018-07-08T05:55:23.216Z,7.70
2018-07-08T05:57:52.424Z,7.10
2018-07-08T06:00:21.654Z,7.53
2018-07-08T06:02:50.899Z,7.05
2018-07-08T06:05:20.114Z,7.20
2018-07-08T06:07:49.345Z,6.40
2018-07-08T06:10:18.591Z,6.20
2018-07-08T06:12:47.814Z,6.08
2018-07-08T06:15:17.099Z,5.87
2018-07-08T06:17:46.288Z,5.50
2018-07-08T06:20:15.526Z,5.87
2018-07-08T06:22:44.734Z,5.72
2018-07-08T06:25:13.978Z,5.00
2018-07-08T06:27:43.213Z,5.30
2018-07-08T06:30:12.499Z,5.20
2018-07-08T06:32:41.729Z,5.37
2018-07-08T07:02:41.138Z,5.25
2018-07-08T07:05:10.483Z,6.47
2018-07-08T07:07:39.694Z,6.37
2018-07-08T07:10:09.098Z,6.40
2018-07-08T07:12:38.354Z,6.20
2018-07-08T07:15:07.857Z,5.93
2018-07-08T07:17:37.097Z,6.40
2018-07-08T07:20:06.396Z,6.65
2018-07-08T07:22:36.670Z,6.30
2018-07-08T07:25:06.331Z,6.27
2018-07-08T07:27:35.550Z,5.83
2018-07-08T07:30:05.776Z,5.86
2018-07-08T07:32:35.022Z,6.08
2018-07-08T07:35:04.275Z,6.10
2018-07-08T07:37:33.495Z,6.10
2018-07-08T07:40:02.723Z,6.13
2018-07-08T07:42:31.967Z,6.80
2018-07-08T07:45:01.196Z,6.00
2018-07-08T07:47:30.424Z,6.63
2018-07-08T07:49:59.641Z,6.13
2018-07-08T07:52:28.894Z,6.12
2018-07-08T07:54:58.140Z,6.03
2018-07-08T07:57:27.336Z,6.28
2018-07-08T07:59:56.637Z,6.10
2018-07-08T08:02:25.866Z,5.93
2018-07-08T08:04:55.093Z,5.80
2018-07-08T08:07:24.313Z,6.20
2018-07-08T08:09:53.547Z,5.83
2018-07-08T08:12:22.782Z,6.15
2018-07-08T08:14:52.013Z,5.73
2018-07-08T08:17:21.228Z,5.95
2018-07-08T08:19:50.447Z,5.87
2018-07-08T08:22:19.663Z,6.03
2018-07-08T08:24:48.902Z,6.10
2018-07-08T08:27:18.377Z,6.20
2018-07-08T08:29:47.603Z,6.12
2018-07-08T08:32:16.844Z,5.28
2018-07-08T08:34:57.796Z,5.30
2018-07-08T08:37:29.339Z,6.28
2018-07-08T08:39:58.631Z,5.42
2018-07-08T08:42:27.858Z,5.20
2018-07-08T08:44:57.758Z,5.67
2018-07-08T08:47:27.475Z,5.30
2018-07-08T08:49:56.888Z,5.10
2018-07-08T08:52:26.152Z,5.60
2018-07-08T08:54:55.691Z,5.60
2018-07-08T08:57:24.954Z,5.40
2018-07-08T08:59:54.506Z,5.30
2018-07-08T09:02:23.741Z,5.03
2018-07-08T09:04:52.959Z,5.83
2018-07-08T09:07:22.594Z,5.63
2018-07-08T09:09:51.822Z,5.67
2018-07-08T09:12:21.060Z,4.92
2018-07-08T09:14:50.287Z,5.97
2018-07-08T09:17:19.567Z,5.65
2018-07-08T09:19:48.765Z,5.80
2018-07-08T09:22:18.012Z,6.17
2018-07-08T09:24:47.229Z,6.35
2018-07-08T09:27:16.465Z,5.78
2018-07-08T09:29:45.686Z,5.62
2018-07-08T09:32:14.902Z,5.27
2018-07-08T09:34:44.147Z,5.80
2018-07-08T09:37:13.353Z,5.85
2018-07-08T09:39:42.595Z,5.42
2018-07-08T09:42:11.820Z,5.78
2018-07-08T09:44:41.047Z,6.07
2018-07-08T09:47:10.279Z,5.90
2018-07-08T09:49:39.499Z,5.60
2018-07-08T09:52:08.734Z,5.67
2018-07-08T09:54:37.962Z,6.00
2018-07-08T09:57:07.205Z,5.87
2018-07-08T09:59:36.406Z,6.30
2018-07-08T10:02:06.659Z,5.92
2018-07-08T10:04:35.938Z,6.20
2018-07-08T10:07:05.247Z,6.57
2018-07-08T10:09:34.473Z,6.10
2018-07-08T10:12:03.686Z,6.80
2018-07-08T10:14:32.939Z,5.87
2018-07-08T10:17:02.154Z,6.25
2018-07-08T10:19:31.432Z,6.20
2018-07-08T10:22:00.648Z,6.00
2018-07-08T10:24:29.874Z,6.65
2018-07-08T10:28:20.862Z,5.92
2018-07-08T10:30:50.415Z,6.40
2018-07-08T10:33:19.730Z,6.40
2018-07-08T10:35:58.370Z,5.58
2018-07-08T10:38:27.705Z,6.50
2018-07-08T10:40:56.974Z,5.80
2018-07-08T10:43:26.237Z,6.10
2018-07-08T10:45:55.483Z,5.90
2018-07-08T10:48:24.728Z,6.10
2018-07-08T10:50:53.955Z,7.17
2018-07-08T10:53:23.283Z,6.72
2018-07-08T10:55:52.514Z,6.60
2018-07-08T10:58:21.787Z,5.73
2018-07-08T11:00:51.003Z,5.67
2018-07-08T11:03:20.231Z,6.28
2018-07-08T11:05:49.513Z,6.50
2018-07-08T11:08:18.758Z,6.22
2018-07-08T11:10:48.037Z,5.90
2018-07-08T11:13:17.215Z,5.83
2018-07-08T11:15:46.446Z,5.53
2018-07-08T11:18:15.687Z,5.45
2018-07-08T11:20:44.917Z,5.57
2018-07-08T11:23:14.140Z,5.70
2018-07-08T11:25:43.384Z,5.73
2018-07-08T11:28:13.872Z,5.20
2018-07-08T11:30:43.114Z,5.75
2018-07-08T11:33:12.368Z,5.93
2018-07-08T11:35:41.623Z,6.08
2018-07-08T11:38:10.870Z,6.38
2018-07-08T11:40:40.074Z,6.47
2018-07-08T11:43:09.305Z,6.55
2018-07-08T11:45:38.557Z,5.93
2018-07-08T11:48:07.843Z,5.97
2018-07-08T11:50:37.043Z,6.33
2018-07-08T11:53:06.314Z,5.95
2018-07-08T11:55:35.536Z,5.83
2018-07-08T11:58:05.023Z,6.17
2018-07-08T12:00:34.252Z,5.97
2018-07-08T12:03:03.507Z,5.15
2018-07-08T12:05:32.755Z,5.28
2018-07-08T12:08:02.043Z,5.20
2018-07-08T12:10:31.282Z,5.13
2018-07-08T12:13:00.529Z,6.10
2018-07-08T12:15:29.785Z,5.17
2018-07-08T12:17:59.022Z,5.22
2018-07-08T12:20:28.255Z,5.03
2018-07-08T12:22:57.531Z,5.27
2018-07-08T12:25:26.840Z,5.17
2018-07-08T12:27:56.114Z,4.67
2018-07-08T12:30:25.754Z,4.47
2018-07-08T12:32:54.986Z,4.25
2018-07-08T12:35:24.220Z,4.43
2018-07-08T12:37:53.581Z,4.50
2018-07-08T12:40:22.838Z,4.33
2018-07-08T12:42:52.100Z,4.50
2018-07-08T12:45:21.323Z,4.73
2018-07-08T12:47:50.574Z,4.60
2018-07-08T12:50:19.795Z,4.60
2018-07-08T12:52:49.062Z,4.40
2018-07-08T12:55:18.310Z,4.62
2018-07-08T12:57:48.502Z,4.20
2018-07-08T13:00:17.748Z,4.43
2018-07-08T13:02:46.999Z,4.57
2018-07-08T13:05:16.241Z,4.40
2018-07-08T13:07:45.577Z,4.35
2018-07-08T13:10:14.818Z,4.87
2018-07-08T13:12:44.086Z,4.73
2018-07-08T13:15:13.335Z,4.40
2018-07-08T13:17:42.575Z,4.47
2018-07-08T13:20:11.844Z,4.60
2018-07-08T13:22:41.179Z,4.73
2018-07-08T13:25:10.414Z,4.20
2018-07-08T13:27:39.710Z,4.10
2018-07-08T13:30:08.943Z,4.40
2018-07-08T13:32:38.410Z,4.00
2018-07-08T13:35:07.609Z,4.10
2018-07-08T13:37:36.931Z,4.10
2018-07-08T13:40:06.474Z,4.00
2018-07-08T13:42:35.909Z,3.87
2018-07-08T13:45:05.459Z,3.90
2018-07-08T13:47:34.720Z,4.10
2018-07-08T13:50:04.186Z,4.10
2018-07-08T13:52:34.821Z,3.80
2018-07-08T13:55:04.056Z,3.90
2018-07-08T13:57:33.282Z,3.63
2018-07-08T14:00:02.539Z,4.03
2018-07-08T14:02:31.968Z,3.90
2018-07-08T14:05:02.250Z,3.80
2018-07-08T14:07:31.513Z,3.85
2018-07-08T14:10:00.781Z,4.10
2018-07-08T14:12:30.007Z,3.73
2018-07-08T14:14:59.275Z,3.80
2018-07-08T14:17:28.507Z,3.60
2018-07-08T14:19:57.767Z,3.70
2018-07-08T14:22:27.108Z,3.90
2018-07-08T14:24:56.374Z,3.80
2018-07-08T14:27:25.779Z,3.77
2018-07-08T14:29:55.087Z,3.83
2018-07-08T14:32:24.648Z,4.00
2018-07-08T14:34:54.046Z,3.70
2018-07-08T14:37:23.270Z,3.87
2018-07-08T14:39:52.599Z,3.55
2018-07-08T14:42:21.872Z,3.58
2018-07-08T14:44:51.144Z,3.55
2018-07-08T14:47:20.667Z,3.40
2018-07-08T14:49:49.933Z,3.47
2018-07-08T14:52:20.455Z,4.00
2018-07-08T14:54:49.696Z,3.63
2018-07-08T14:57:18.964Z,3.30
2018-07-08T14:59:48.229Z,3.73
2018-07-08T15:02:17.518Z,3.10
2018-07-08T15:04:46.813Z,2.98
2018-07-08T15:07:15.807Z,3.50
2018-07-08T15:09:45.065Z,3.02
2018-07-08T15:12:14.334Z,3.40
2018-07-08T15:14:43.584Z,3.12
2018-07-08T15:17:12.827Z,3.20
2018-07-08T15:19:42.090Z,3.10
2018-07-08T15:22:11.379Z,2.70
2018-07-08T15:24:40.619Z,2.92
2018-07-08T15:27:09.936Z,2.98
2018-07-08T15:29:39.218Z,2.98
2018-07-08T15:32:08.472Z,2.87
2018-07-08T15:34:37.707Z,3.00
2018-07-08T15:37:07.111Z,3.00
2018-07-08T15:39:36.366Z,3.05
2018-07-08T15:42:05.586Z,2.90
2018-07-08T15:44:34.859Z,2.80
2018-07-08T15:47:04.176Z,2.97
2018-07-08T15:49:33.450Z,3.10
2018-07-08T15:52:02.613Z,2.90
2018-07-08T15:54:31.911Z,2.87
2018-07-08T15:57:01.143Z,2.40
2018-07-08T15:59:30.399Z,2.90
2018-07-08T16:01:59.646Z,2.90
2018-07-08T16:04:28.921Z,2.70
2018-07-08T16:06:58.178Z,3.10
2018-07-08T16:09:27.405Z,3.03
2018-07-08T16:11:56.696Z,3.20
2018-07-08T16:14:25.882Z,3.20
2018-07-08T16:16:55.111Z,3.10
2018-07-08T16:19:24.364Z,3.00
2018-07-08T16:21:53.570Z,2.95
2018-07-08T16:24:22.790Z,2.85
2018-07-08T16:26:52.438Z,3.12
2018-07-08T16:29:21.690Z,2.58
2018-07-08T16:31:50.915Z,2.83
2018-07-08T16:34:20.125Z,2.60
2018-07-08T16:36:49.351Z,2.60
2018-07-08T16:39:18.567Z,2.65
2018-07-08T16:41:47.797Z,3.30
2018-07-08T16:44:17.024Z,3.03
2018-07-08T16:46:46.240Z,2.60
2018-07-08T16:49:15.507Z,2.80
2018-07-08T16:51:44.715Z,2.60
2018-07-08T16:54:13.921Z,2.83
2018-07-08T16:56:43.287Z,2.60
2018-07-08T16:59:12.514Z,2.35
2018-07-08T17:01:41.894Z,2.60
2018-07-08T17:04:11.151Z,2.40
2018-07-08T17:06:40.406Z,2.67
2018-07-08T17:09:10.674Z,2.60
2018-07-08T17:11:40.004Z,2.60
2018-07-08T17:23:59.281Z,2.35
2018-07-08T17:29:04.674Z,2.40
2018-07-08T17:31:33.954Z,2.70
2018-07-08T17:34:03.235Z,2.50
2018-07-08T17:36:32.458Z,2.40
2018-07-08T17:39:01.738Z,2.50
2018-07-08T17:41:30.991Z,2.27
2018-07-08T17:44:00.783Z,2.60
2018-07-08T17:46:30.088Z,2.60
2018-07-08T17:48:59.217Z,2.33
2018-07-08T17:51:28.439Z,2.37
2018-07-08T17:53:57.656Z,2.70
2018-07-08T17:56:26.880Z,2.13
2018-07-08T17:58:56.207Z,2.50
2018-07-08T18:01:25.491Z,2.80
2018-07-08T18:03:54.695Z,2.40
2018-07-08T18:06:23.938Z,2.42
2018-07-08T18:08:53.211Z,2.10
2018-07-08T18:11:22.492Z,2.10
2018-07-08T18:13:52.216Z,2.30
2018-07-08T18:16:21.951Z,2.33
2018-07-08T18:18:51.162Z,2.50
2018-07-08T18:21:20.528Z,1.90
2018-07-08T18:23:49.678Z,2.20
2018-07-08T18:26:18.906Z,2.00
2018-07-08T18:28:48.150Z,2.17
2018-07-08T18:31:17.378Z,2.00
2018-07-08T18:33:46.608Z,2.17
2018-07-08T18:36:15.872Z,2.60
2018-07-08T18:38:45.111Z,2.55
2018-07-08T18:41:14.358Z,2.35
2018-07-08T18:43:43.789Z,2.27
2018-07-08T18:46:13.085Z,2.33
2018-07-08T18:48:42.269Z,2.33
2018-07-08T18:51:11.558Z,2.50
2018-07-08T18:53:40.783Z,2.30
2018-07-08T18:56:10.030Z,2.27
2018-07-08T18:58:39.283Z,2.40
2018-07-08T19:01:08.529Z,2.22
2018-07-08T19:03:37.802Z,2.33
2018-07-08T19:06:07.438Z,2.10
2018-07-08T19:08:36.703Z,2.40
2018-07-08T19:11:05.962Z,2.60
2018-07-08T19:13:36.144Z,2.50
2018-07-08T19:16:05.482Z,3.00
2018-07-08T19:18:34.733Z,2.57
2018-07-08T19:21:03.956Z,2.20
2018-07-08T19:23:33.203Z,2.47
2018-07-08T19:26:02.428Z,2.50
2018-07-08T19:28:31.694Z,2.85
2018-07-08T19:31:00.970Z,2.70
2018-07-08T19:33:30.251Z,3.00
2018-07-08T19:35:59.478Z,2.50
2018-07-08T19:38:28.693Z,3.33
2018-07-08T19:40:57.952Z,3.17
2018-07-08T19:43:27.247Z,3.10
2018-07-08T19:45:56.527Z,3.00
2018-07-08T19:48:25.835Z,3.10
2018-07-08T19:50:55.139Z,3.25
2018-07-08T19:53:24.415Z,3.22
2018-07-08T19:55:53.641Z,2.97
2018-07-08T19:58:22.888Z,2.83
2018-07-08T20:00:52.104Z,3.30
2018-07-08T20:03:21.343Z,2.77
2018-07-08T20:05:50.609Z,3.02
2018-07-08T20:08:19.911Z,3.37
2018-07-08T20:10:49.395Z,2.87
2018-07-08T20:13:18.650Z,3.25
2018-07-08T20:15:47.855Z,3.12
2018-07-08T20:18:17.263Z,3.55
2018-07-08T20:20:46.487Z,3.20
2018-07-08T20:23:15.756Z,3.42
2018-07-08T20:25:44.990Z,3.20
2018-07-08T20:28:14.280Z,3.20
2018-07-08T20:30:43.522Z,3.33
2018-07-08T20:33:12.812Z,3.47
2018-07-08T20:35:42.093Z,3.53
2018-07-08T20:38:11.346Z,3.47
2018-07-08T20:40:40.550Z,3.30
2018-07-08T20:43:09.786Z,3.50
2018-07-08T20:45:39.018Z,3.40
2018-07-08T20:48:08.321Z,3.70
2018-07-08T20:50:38.731Z,3.43
2018-07-08T20:53:08.066Z,3.50
2018-07-08T20:55:37.268Z,3.30
2018-07-08T20:58:06.547Z,3.30
2018-07-08T21:00:35.790Z,3.27
2018-07-08T21:03:05.042Z,3.43
2018-07-08T21:05:34.335Z,3.87
2018-07-08T21:08:03.566Z,3.60
2018-07-08T21:10:33.047Z,3.50
2018-07-08T21:13:02.342Z,3.70
2018-07-08T21:15:31.587Z,3.20
2018-07-08T21:18:00.866Z,4.00
2018-07-08T21:20:30.130Z,4.00
2018-07-08T21:22:59.890Z,3.67
2018-07-08T21:25:29.132Z,4.00
2018-07-08T21:27:58.418Z,3.70
2018-07-08T21:30:28.172Z,4.00
2018-07-08T21:32:57.410Z,4.03
2018-07-08T21:35:26.707Z,4.13
2018-07-08T21:37:55.983Z,3.33
2018-07-08T21:40:25.240Z,4.03
2018-07-08T21:42:54.774Z,3.57
2018-07-08T21:45:24.282Z,4.03
2018-07-08T21:47:53.527Z,3.33
2018-07-08T21:50:22.779Z,4.23
2018-07-08T21:52:52.000Z,3.80
2018-07-08T21:55:21.463Z,4.43
2018-07-08T21:57:50.762Z,4.20
2018-07-08T22:00:28.780Z,4.00
2018-07-08T22:02:58.058Z,4.25
2018-07-08T22:05:28.286Z,4.13
2018-07-08T22:08:05.128Z,4.33
2018-07-08T22:10:34.610Z,4.10
2018-07-08T22:13:04.185Z,4.10
2018-07-08T22:15:33.437Z,4.37
2018-07-08T22:18:02.696Z,4.33
2018-07-08T22:20:31.940Z,3.60
2018-07-08T22:23:01.232Z,4.07
2018-07-08T22:25:30.457Z,3.97
2018-07-08T22:27:59.707Z,3.97
2018-07-08T22:30:28.951Z,3.98
2018-07-08T22:32:58.264Z,4.03
2018-07-08T22:35:28.658Z,3.90
2018-07-08T22:37:57.952Z,4.20
2018-07-08T22:40:27.163Z,4.30
2018-07-08T22:42:56.405Z,4.10
2018-07-08T22:45:25.623Z,4.50
2018-07-08T22:47:54.862Z,4.50
2018-07-08T22:50:24.115Z,4.70
2018-07-08T22:52:53.350Z,4.58
2018-07-08T22:55:22.602Z,4.10
2018-07-08T22:57:51.813Z,4.30
2018-07-08T23:00:37.879Z,4.10
2018-07-08T23:03:49.395Z,4.00
2018-07-08T23:06:19.580Z,4.50
2018-07-08T23:08:49.614Z,4.60
2018-07-08T23:11:19.327Z,4.77
2018-07-08T23:13:49.619Z,4.60
2018-07-08T23:16:19.106Z,4.50
2018-07-08T23:18:48.340Z,4.70
2018-07-08T23:21:17.633Z,4.87
2018-07-08T23:23:46.867Z,4.80
2018-07-08T23:26:16.119Z,4.90
2018-07-08T23:28:45.345Z,4.63
2018-07-08T23:31:14.707Z,4.20
2018-07-08T23:33:43.922Z,4.60
2018-07-08T23:36:13.368Z,4.70
2018-07-08T23:38:42.578Z,5.13
2018-07-08T23:41:12.372Z,4.90
2018-07-08T23:43:41.624Z,4.47
2018-07-08T23:46:10.831Z,4.63
2018-07-08T23:48:40.080Z,4.67
2018-07-08T23:51:09.352Z,5.40
2018-07-08T23:53:38.815Z,5.50
2018-07-08T23:56:08.051Z,5.27
2018-07-08T23:58:37.271Z,5.00
